Wheaton, Minnesota
Current Conditions -  °F | °C
As of 4:56 PM on Saturday 20 Dec 2014 (Local Time) from KETH Reporting Station
Haze Haze  
Wind Chill: 19°   Ceiling: 900
Heat Index: 30°   Visibility: 4mi
Dew Point: 27°   Wind: 15mph
Humidity: 86%   Direction: 140°SE
Pressure: 29.99"   Gusts: NA
Location:  45.8°N, 96.5°W
Report Text: KETH 202256Z AUTO 14013KT 4SM BR OVC009 M01/M03 A2999 RMK AO2
Loading
Personal Weather Stations






























Interactive Weather Map New forecast layout! Learn more

10-Day Weather Forecast

Advertisements
Track Severe Weather on mobile